createdAt,value
2023-05-09T00:01:13.378Z,7.29
2023-05-09T00:03:41.942Z,7.26
2023-05-09T00:06:11.647Z,7.24
2023-05-09T00:08:39.657Z,7.16
2023-05-09T00:11:07.639Z,7.14
2023-05-09T00:13:35.950Z,6.97
2023-05-09T00:16:04.390Z,6.92
2023-05-09T00:18:34.148Z,6.82
2023-05-09T00:21:03.194Z,6.81
2023-05-09T00:23:32.542Z,6.76
2023-05-09T00:26:00.672Z,6.78
2023-05-09T00:28:28.669Z,6.67
2023-05-09T00:30:56.876Z,6.53
2023-05-09T00:33:27.000Z,6.45
2023-05-09T00:35:55.090Z,6.33
2023-05-09T00:38:23.985Z,6.21
2023-05-09T00:40:53.499Z,6.15
2023-05-09T00:43:22.537Z,6.20
2023-05-09T00:45:51.173Z,6.09
2023-05-09T00:48:19.618Z,6.10
2023-05-09T00:50:52.842Z,6.02
2023-05-09T00:53:20.903Z,6.05
2023-05-09T00:55:49.385Z,5.99
2023-05-09T00:58:19.494Z,5.97
2023-05-09T01:00:48.075Z,5.90
2023-05-09T01:03:16.381Z,5.99
2023-05-09T01:05:53.626Z,5.88
2023-05-09T01:08:34.877Z,5.72
2023-05-09T01:11:07.948Z,5.70
2023-05-09T01:13:43.792Z,5.72
2023-05-09T01:16:18.882Z,5.66
2023-05-09T01:18:51.319Z,5.68
2023-05-09T01:21:24.224Z,5.67
2023-05-09T01:24:04.586Z,5.72
2023-05-09T01:26:45.258Z,5.74
2023-05-09T01:29:40.888Z,5.73
2023-05-09T01:32:11.104Z,5.55
2023-05-09T01:34:41.910Z,5.51
2023-05-09T01:37:10.794Z,5.55
2023-05-09T01:39:42.578Z,5.51
2023-05-09T01:42:13.015Z,5.52
2023-05-09T01:44:44.535Z,5.37
2023-05-09T01:47:13.370Z,5.39
2023-05-09T01:49:42.577Z,5.38
2023-05-09T01:52:14.692Z,5.37
2023-05-09T01:54:44.229Z,5.30
2023-05-09T01:57:13.385Z,5.21
2023-05-09T01:59:47.792Z,5.22
2023-05-09T02:02:16.403Z,5.14
2023-05-09T02:04:45.312Z,5.01
2023-05-09T02:07:13.729Z,5.02
2023-05-09T02:09:41.955Z,4.91
2023-05-09T02:12:09.934Z,4.93
2023-05-09T02:14:37.942Z,4.95
2023-05-09T02:17:09.714Z,4.97
2023-05-09T02:19:37.798Z,4.86
2023-05-09T02:22:06.013Z,4.79
2023-05-09T02:24:35.221Z,4.70
2023-05-09T02:27:04.752Z,4.69
2023-05-09T02:29:40.513Z,4.74
2023-05-09T02:32:13.817Z,4.60
2023-05-09T02:34:43.144Z,4.57
2023-05-09T02:37:12.046Z,4.56
2023-05-09T02:39:39.949Z,4.47
2023-05-09T02:42:09.690Z,4.45
2023-05-09T02:44:38.858Z,4.40
2023-05-09T02:47:08.835Z,4.35
2023-05-09T02:49:38.255Z,4.38
2023-05-09T02:52:06.641Z,4.41
2023-05-09T02:54:34.648Z,4.27
2023-05-09T02:57:02.616Z,4.31
2023-05-09T02:59:31.121Z,4.37
2023-05-09T03:01:59.141Z,4.40
2023-05-09T03:04:27.444Z,4.39
2023-05-09T03:06:56.851Z,4.30
2023-05-09T03:09:26.949Z,4.38
2023-05-09T03:11:56.632Z,4.32
2023-05-09T03:14:24.689Z,4.32
2023-05-09T03:16:52.662Z,4.46
2023-05-09T03:19:20.767Z,4.58
2023-05-09T03:21:48.816Z,4.61
2023-05-09T03:24:18.269Z,4.64
2023-05-09T03:26:46.192Z,4.70
2023-05-09T03:29:14.142Z,4.76
2023-05-09T03:31:42.128Z,4.84
2023-05-09T03:34:15.239Z,4.86
2023-05-09T03:36:43.825Z,4.92
2023-05-09T03:39:12.218Z,4.99
2023-05-09T03:41:42.023Z,5.03
2023-05-09T03:44:11.598Z,5.09
2023-05-09T03:46:39.596Z,5.13
2023-05-09T03:49:07.890Z,5.17
2023-05-09T03:51:36.731Z,5.18
2023-05-09T03:54:04.958Z,5.23
2023-05-09T03:56:32.927Z,5.25
2023-05-09T03:59:02.305Z,5.26
2023-05-09T04:01:30.324Z,5.25
2023-05-09T04:03:58.731Z,5.38
2023-05-09T04:06:26.902Z,5.44
2023-05-09T04:08:55.098Z,5.50
2023-05-09T04:11:23.090Z,5.59
2023-05-09T04:13:51.118Z,5.62
2023-05-09T04:16:20.664Z,5.70
2023-05-09T04:18:48.658Z,5.79
2023-05-09T04:21:16.666Z,5.88
2023-05-09T04:23:44.770Z,5.97
2023-05-09T04:26:14.063Z,6.00
2023-05-09T04:28:42.447Z,5.95
2023-05-09T04:31:12.737Z,6.06
2023-05-09T04:33:42.152Z,6.07
2023-05-09T04:36:15.401Z,6.02
2023-05-09T04:38:43.467Z,6.17
2023-05-09T04:41:11.427Z,6.18
2023-05-09T04:43:39.718Z,6.27
2023-05-09T04:46:07.903Z,6.24
2023-05-09T04:48:37.902Z,6.26
2023-05-09T04:51:07.580Z,6.34
2023-05-09T04:53:35.664Z,6.39
2023-05-09T04:56:03.763Z,6.51
2023-05-09T04:58:33.366Z,6.57
2023-05-09T05:01:01.355Z,6.61
2023-05-09T05:03:29.358Z,6.73
2023-05-09T05:05:57.534Z,6.82
2023-05-09T05:08:26.925Z,6.88
2023-05-09T05:10:54.974Z,6.95
2023-05-09T05:13:23.031Z,7.09
2023-05-09T05:15:51.127Z,7.26
2023-05-09T05:18:21.222Z,7.39
2023-05-09T05:20:51.641Z,7.52
2023-05-09T05:23:19.623Z,7.70
2023-05-09T05:25:49.697Z,7.82
2023-05-09T05:28:17.709Z,7.96
2023-05-09T05:30:45.674Z,8.16
2023-05-09T05:33:13.724Z,8.32
2023-05-09T05:35:41.659Z,8.45
2023-05-09T05:38:09.623Z,8.58
2023-05-09T05:40:37.656Z,8.69
2023-05-09T05:43:06.990Z,8.79
2023-05-09T05:45:35.076Z,8.89
2023-05-09T05:48:03.093Z,8.96
2023-05-09T05:50:31.096Z,8.98
2023-05-09T05:52:59.185Z,9.00
2023-05-09T05:55:27.253Z,8.95
2023-05-09T05:57:55.366Z,8.99
2023-05-09T06:00:24.726Z,8.96
2023-05-09T06:02:52.863Z,8.89
2023-05-09T06:05:21.141Z,9.05
2023-05-09T06:07:49.157Z,9.06
2023-05-09T06:10:17.302Z,9.11
2023-05-09T06:12:45.366Z,9.15
2023-05-09T06:15:13.793Z,9.26
2023-05-09T06:17:43.453Z,9.33
2023-05-09T06:20:12.006Z,9.33
2023-05-09T06:22:40.078Z,9.37
2023-05-09T06:25:10.359Z,9.44
2023-05-09T06:27:39.382Z,9.49
2023-05-09T06:30:23.838Z,9.65
2023-05-09T06:32:54.876Z,9.77
2023-05-09T06:35:25.515Z,9.87
2023-05-09T06:37:53.480Z,9.96
2023-05-09T06:40:21.786Z,10.04
2023-05-09T06:42:49.734Z,10.10
2023-05-09T06:45:18.189Z,10.18
2023-05-09T06:47:46.165Z,10.28
2023-05-09T06:50:15.579Z,10.29
2023-05-09T06:52:43.524Z,10.30
2023-05-09T06:55:12.303Z,10.30
2023-05-09T06:57:41.090Z,10.31
2023-05-09T07:00:09.447Z,10.36
2023-05-09T07:02:41.753Z,10.33
2023-05-09T07:05:10.859Z,10.32
2023-05-09T07:07:40.829Z,10.36
2023-05-09T07:10:12.286Z,10.35
2023-05-09T07:12:41.574Z,10.35
2023-05-09T07:15:11.037Z,10.35
2023-05-09T07:17:39.247Z,10.33
2023-05-09T07:20:08.643Z,10.35
2023-05-09T07:22:37.656Z,10.38
2023-05-09T07:25:09.435Z,10.46
2023-05-09T07:27:38.206Z,10.48
2023-05-09T07:30:07.071Z,10.54
2023-05-09T07:32:35.071Z,10.61
2023-05-09T07:35:03.281Z,10.66
2023-05-09T07:37:31.345Z,10.67
2023-05-09T07:39:59.308Z,10.78
2023-05-09T07:42:30.432Z,10.96
2023-05-09T07:44:59.206Z,11.08
2023-05-09T07:47:27.324Z,11.20
2023-05-09T07:49:55.482Z,11.39
2023-05-09T07:52:23.614Z,11.55
2023-05-09T07:54:51.627Z,11.72
2023-05-09T07:57:19.601Z,11.86
2023-05-09T07:59:48.986Z,11.99
2023-05-09T08:02:16.976Z,12.18
2023-05-09T08:04:48.784Z,12.40
2023-05-09T08:07:17.109Z,12.74
2023-05-09T08:09:45.094Z,12.98
2023-05-09T08:12:13.167Z,13.25
2023-05-09T08:14:41.208Z,13.43
2023-05-09T08:17:10.956Z,13.59
2023-05-09T08:19:39.158Z,13.67
2023-05-09T08:22:07.110Z,13.98
2023-05-09T08:24:35.340Z,14.07
2023-05-09T08:27:03.501Z,14.23
2023-05-09T08:29:32.000Z,14.24
2023-05-09T08:32:00.075Z,14.38
2023-05-09T08:34:31.354Z,14.46
2023-05-09T08:36:59.293Z,14.55
2023-05-09T08:39:27.345Z,14.75
2023-05-09T08:42:00.058Z,14.86
2023-05-09T08:44:30.063Z,15.01
2023-05-09T08:47:01.757Z,15.06
2023-05-09T08:49:31.866Z,15.33
2023-05-09T08:52:00.309Z,15.47
2023-05-09T08:55:00.018Z,15.55
2023-05-09T08:57:28.647Z,15.68
2023-05-09T08:59:57.594Z,15.72
2023-05-09T09:02:25.946Z,15.69
2023-05-09T09:04:57.968Z,15.76
2023-05-09T09:07:30.571Z,15.68
2023-05-09T09:10:00.281Z,15.73
2023-05-09T09:12:28.315Z,15.79
2023-05-09T09:14:57.850Z,15.79
2023-05-09T09:17:28.418Z,15.88
2023-05-09T09:20:00.604Z,15.84
2023-05-09T09:22:34.442Z,15.79
2023-05-09T09:25:02.689Z,15.87
2023-05-09T09:27:30.975Z,15.91
2023-05-09T09:30:08.162Z,16.12
2023-05-09T09:32:37.756Z,16.22
2023-05-09T09:35:08.355Z,16.22
2023-05-09T09:37:37.111Z,16.21
2023-05-09T09:40:05.676Z,16.17
2023-05-09T09:42:43.246Z,16.24
2023-05-09T09:45:13.489Z,16.33
2023-05-09T09:47:41.807Z,16.45
2023-05-09T09:50:18.939Z,16.47
2023-05-09T09:52:51.074Z,16.53
2023-05-09T09:55:19.769Z,16.72
2023-05-09T09:57:48.570Z,16.71
2023-05-09T10:00:18.296Z,16.73
2023-05-09T10:02:51.379Z,16.79
2023-05-09T10:05:27.700Z,16.93
2023-05-09T10:07:57.362Z,16.84
2023-05-09T10:10:28.324Z,16.80
2023-05-09T10:12:59.076Z,16.98
2023-05-09T10:15:28.718Z,17.07
2023-05-09T10:18:01.018Z,17.11
2023-05-09T10:20:31.366Z,17.22
2023-05-09T10:23:03.589Z,17.34
2023-05-09T10:25:39.527Z,17.47
2023-05-09T10:28:12.841Z,17.68
2023-05-09T10:30:51.765Z,17.57
2023-05-09T10:33:25.789Z,17.31
2023-05-09T10:35:56.884Z,17.32
2023-05-09T10:38:26.069Z,17.40
2023-05-09T10:40:55.591Z,17.46
2023-05-09T10:43:25.422Z,17.35
2023-05-09T10:45:56.007Z,17.28
2023-05-09T10:48:25.115Z,17.18
2023-05-09T10:50:55.854Z,17.15
2023-05-09T10:53:24.501Z,17.23
2023-05-09T10:56:00.570Z,17.38
2023-05-09T10:58:30.290Z,17.38
2023-05-09T11:01:00.225Z,17.45
2023-05-09T11:03:31.047Z,17.44
2023-05-09T11:06:03.811Z,17.25
2023-05-09T11:08:33.383Z,17.21
2023-05-09T11:11:08.784Z,17.16
2023-05-09T11:13:58.588Z,17.26
2023-05-09T11:16:27.876Z,17.38
2023-05-09T11:18:56.092Z,17.34
2023-05-09T11:21:27.440Z,17.23
2023-05-09T11:28:21.633Z,17.39
2023-05-09T11:30:53.907Z,17.49
2023-05-09T11:33:28.606Z,17.52
2023-05-09T11:36:24.507Z,17.60
2023-05-09T11:39:15.741Z,17.79
2023-05-09T11:41:55.688Z,17.90
2023-05-09T11:44:25.983Z,17.95
2023-05-09T11:46:54.383Z,17.91
2023-05-09T11:49:22.115Z,18.01
2023-05-09T11:51:50.372Z,18.11
2023-05-09T11:54:19.841Z,18.39
2023-05-09T11:56:48.028Z,18.62
2023-05-09T11:59:20.515Z,18.71
2023-05-09T12:03:28.974Z,18.70
2023-05-09T12:05:44.101Z,18.66
2023-05-09T12:08:17.857Z,18.53
2023-05-09T12:10:47.760Z,18.48
2023-05-09T12:13:39.203Z,18.34
2023-05-09T12:16:10.466Z,18.40
2023-05-09T12:18:42.740Z,18.53
2023-05-09T12:22:23.831Z,18.65
2023-05-09T12:24:51.912Z,18.75
2023-05-09T12:27:23.867Z,18.83
2023-05-09T12:29:54.837Z,18.90
2023-05-09T12:32:25.421Z,19.09
2023-05-09T12:34:54.373Z,19.11
2023-05-09T12:37:25.351Z,19.07
2023-05-09T12:40:04.304Z,19.23
2023-05-09T12:42:34.564Z,19.22
2023-05-09T12:45:06.687Z,19.26
2023-05-09T12:51:03.801Z,19.23
2023-05-09T12:53:32.267Z,19.12
2023-05-09T12:56:03.748Z,19.16
2023-05-09T12:58:34.336Z,19.22
2023-05-09T13:01:05.847Z,19.12
2023-05-09T13:03:38.065Z,19.22
2023-05-09T13:06:12.898Z,19.14
2023-05-09T13:13:42.964Z,19.43
2023-05-09T13:15:49.976Z,19.72
2023-05-09T13:18:18.064Z,19.84
2023-05-09T13:20:46.097Z,19.88
2023-05-09T13:24:04.543Z,19.96
2023-05-09T13:26:41.950Z,20.06
2023-05-09T13:29:23.051Z,20.24
2023-05-09T13:31:55.875Z,20.37
2023-05-09T13:34:24.258Z,20.45
2023-05-09T13:36:52.368Z,20.41
2023-05-09T13:39:20.477Z,20.45
2023-05-09T13:41:48.889Z,20.34
2023-05-09T13:44:16.974Z,20.22
2023-05-09T13:47:00.890Z,20.19
2023-05-09T13:49:32.748Z,20.24
2023-05-09T13:52:00.773Z,20.38
2023-05-09T13:54:36.618Z,20.54
2023-05-09T13:57:07.325Z,20.59
2023-05-09T13:59:37.424Z,20.74
2023-05-09T14:02:05.790Z,21.32
2023-05-09T14:04:35.534Z,22.18
2023-05-09T14:07:03.788Z,23.43
2023-05-09T14:09:31.893Z,25.12
2023-05-09T14:11:59.925Z,26.38
2023-05-09T14:14:27.940Z,28.08
2023-05-09T14:16:56.011Z,29.36
2023-05-09T14:19:23.789Z,28.48
2023-05-09T14:21:53.202Z,26.59
2023-05-09T14:24:21.230Z,24.89
2023-05-09T14:26:49.634Z,24.00
2023-05-09T14:29:18.120Z,24.84
2023-05-09T14:31:46.174Z,25.07
2023-05-09T14:34:13.966Z,24.25
2023-05-09T14:36:42.109Z,24.26
2023-05-09T14:39:11.266Z,25.98
2023-05-09T14:41:39.228Z,25.59
2023-05-09T14:44:07.352Z,25.25
2023-05-09T14:46:35.897Z,25.52
2023-05-09T14:49:04.661Z,25.02
2023-05-09T14:51:39.205Z,24.97
2023-05-09T14:54:07.307Z,26.22
2023-05-09T14:56:36.396Z,28.30
2023-05-09T14:59:04.884Z,30.48
2023-05-09T15:01:33.108Z,31.97
2023-05-09T15:04:01.193Z,33.02
2023-05-09T15:06:30.519Z,34.03
2023-05-09T15:08:58.516Z,33.70
2023-05-09T15:11:28.688Z,33.99
2023-05-09T15:14:07.772Z,34.15
2023-05-09T15:16:40.973Z,34.22
2023-05-09T15:19:09.456Z,35.38
2023-05-09T15:21:38.021Z,34.47
2023-05-09T15:24:07.854Z,34.23
2023-05-09T15:26:44.291Z,35.03
2023-05-09T15:29:13.622Z,35.66
2023-05-09T15:31:41.685Z,35.80
2023-05-09T15:34:09.710Z,36.29
2023-05-09T15:36:37.728Z,36.45
2023-05-09T15:39:06.194Z,36.57
2023-05-09T15:41:34.640Z,36.16
2023-05-09T15:44:02.621Z,35.00
2023-05-09T15:46:32.645Z,35.46
2023-05-09T15:49:00.653Z,34.97
2023-05-09T15:51:30.212Z,34.81
2023-05-09T15:53:58.211Z,34.37
2023-05-09T15:56:26.257Z,34.02
2023-05-09T15:58:54.274Z,34.12
2023-05-09T16:01:22.282Z,33.90
2023-05-09T16:03:51.844Z,33.79
2023-05-09T16:06:20.001Z,33.58
2023-05-09T16:08:48.007Z,32.70
2023-05-09T16:11:15.976Z,32.41
2023-05-09T16:13:43.990Z,31.37
2023-05-09T16:16:11.962Z,30.32
2023-05-09T16:18:39.985Z,29.00
2023-05-09T16:21:09.138Z,27.18
2023-05-09T16:23:37.233Z,26.49
2023-05-09T16:26:05.231Z,25.30
2023-05-09T16:28:32.940Z,24.45
2023-05-09T16:31:04.768Z,23.77
2023-05-09T16:33:33.539Z,23.28
2023-05-09T16:36:01.653Z,22.95
2023-05-09T16:38:31.192Z,22.89
2023-05-09T16:40:59.167Z,22.82
2023-05-09T16:43:27.212Z,22.79
2023-05-09T16:45:55.461Z,22.73
2023-05-09T16:48:23.558Z,22.62
2023-05-09T16:50:53.730Z,22.49
2023-05-09T16:53:22.851Z,22.25
2023-05-09T16:55:53.963Z,22.08
2023-05-09T16:58:21.988Z,21.99
2023-05-09T17:00:51.521Z,21.91
2023-05-09T17:03:19.496Z,21.72
2023-05-09T17:05:47.517Z,21.72
2023-05-09T17:08:15.517Z,21.72
2023-05-09T17:10:43.488Z,21.59
2023-05-09T17:13:12.938Z,21.65
2023-05-09T17:15:41.153Z,21.54
2023-05-09T17:18:08.930Z,21.66
2023-05-09T17:20:37.072Z,21.59
2023-05-09T17:23:05.217Z,21.39
2023-05-09T17:25:33.557Z,21.29
2023-05-09T17:28:01.537Z,21.20
2023-05-09T17:30:30.918Z,21.06
2023-05-09T17:32:59.012Z,20.87
2023-05-09T17:35:27.043Z,20.75
2023-05-09T17:37:55.538Z,20.66
2023-05-09T17:40:23.776Z,20.62
2023-05-09T17:42:51.844Z,20.57
2023-05-09T17:45:20.835Z,20.53
2023-05-09T17:47:50.807Z,20.43
2023-05-09T17:50:20.422Z,20.40
2023-05-09T17:52:49.577Z,20.24
2023-05-09T17:55:17.596Z,20.19
2023-05-09T17:57:45.666Z,20.12
2023-05-09T18:00:14.981Z,20.03
2023-05-09T18:02:43.868Z,19.93
2023-05-09T18:05:13.325Z,19.96
2023-05-09T18:07:41.334Z,19.91
2023-05-09T18:10:10.613Z,19.95
2023-05-09T18:12:38.623Z,20.13
2023-05-09T18:15:07.910Z,20.34
2023-05-09T18:17:36.043Z,20.42
2023-05-09T18:20:04.836Z,20.34
2023-05-09T18:22:34.271Z,20.23
2023-05-09T18:25:02.266Z,19.98
2023-05-09T18:27:30.257Z,19.83
2023-05-09T18:29:58.213Z,19.69
2023-05-09T18:32:26.239Z,19.46
2023-05-09T18:34:54.263Z,19.28
2023-05-09T18:37:22.915Z,19.25
2023-05-09T18:39:52.363Z,19.03
2023-05-09T18:42:20.394Z,18.97
2023-05-09T18:44:48.464Z,18.85
2023-05-09T18:47:16.948Z,18.74
2023-05-09T18:49:45.036Z,18.60
2023-05-09T18:52:13.066Z,18.43
2023-05-09T18:54:41.368Z,18.34
2023-05-09T18:57:11.020Z,18.16
2023-05-09T18:59:39.029Z,18.02
2023-05-09T19:02:07.080Z,17.88
2023-05-09T19:04:35.171Z,17.82
2023-05-09T19:07:03.214Z,17.71
2023-05-09T19:09:31.738Z,17.58
2023-05-09T19:12:04.511Z,17.52
2023-05-09T19:14:33.912Z,17.37
2023-05-09T19:17:01.972Z,17.20
2023-05-09T19:19:29.953Z,17.11
2023-05-09T19:21:57.972Z,16.99
2023-05-09T19:24:26.077Z,16.93
2023-05-09T19:27:00.999Z,16.82
2023-05-09T19:29:29.344Z,16.76
2023-05-09T19:31:58.689Z,16.63
2023-05-09T19:34:27.243Z,16.59
2023-05-09T19:36:55.382Z,16.51
2023-05-09T19:39:23.404Z,16.34
2023-05-09T19:41:51.419Z,16.29
2023-05-09T19:44:19.433Z,16.20
2023-05-09T19:46:47.706Z,16.05
2023-05-09T19:49:17.995Z,15.97
2023-05-09T19:51:46.250Z,15.81
2023-05-09T19:54:14.292Z,15.70
2023-05-09T19:56:42.507Z,15.58
2023-05-09T19:59:10.547Z,15.38
2023-05-09T20:01:38.586Z,15.22
2023-05-09T20:04:07.577Z,15.03
2023-05-09T20:06:40.266Z,14.93
2023-05-09T20:09:08.925Z,14.81
2023-05-09T20:11:37.249Z,14.66
2023-05-09T20:14:08.592Z,14.58
2023-05-09T20:16:37.179Z,14.46
2023-05-09T20:19:07.739Z,14.44
2023-05-09T20:21:36.241Z,14.33
2023-05-09T20:24:06.141Z,14.30
2023-05-09T20:26:34.505Z,14.22
2023-05-09T20:29:02.780Z,14.18
2023-05-09T20:31:31.685Z,14.18
2023-05-09T20:34:00.433Z,14.09
2023-05-09T20:36:29.455Z,13.96
2023-05-09T20:38:58.022Z,13.92
2023-05-09T20:41:27.529Z,13.82
2023-05-09T20:43:56.099Z,13.85
2023-05-09T20:46:24.136Z,13.77
2023-05-09T20:48:52.421Z,13.66
2023-05-09T20:51:20.789Z,13.62
2023-05-09T20:53:49.093Z,13.61
2023-05-09T20:56:17.541Z,13.59
2023-05-09T20:58:47.255Z,13.52
2023-05-09T21:01:15.537Z,13.49
2023-05-09T21:03:43.904Z,13.46
2023-05-09T21:06:12.262Z,13.43
2023-05-09T21:08:42.070Z,13.30
2023-05-09T21:11:10.379Z,13.30
2023-05-09T21:13:38.642Z,13.22
2023-05-09T21:16:08.489Z,13.21
2023-05-09T21:18:36.755Z,13.25
2023-05-09T21:21:08.178Z,13.25
2023-05-09T21:23:36.702Z,13.20
2023-05-09T21:26:04.892Z,13.23
2023-05-09T21:28:33.230Z,13.18
2023-05-09T21:31:02.139Z,13.13
2023-05-09T21:33:32.120Z,13.10
2023-05-09T21:36:00.538Z,13.11
2023-05-09T21:38:29.350Z,13.05
2023-05-09T21:40:58.371Z,13.06
2023-05-09T21:43:26.716Z,13.03
2023-05-09T21:45:56.536Z,13.04
2023-05-09T21:48:24.841Z,13.00
2023-05-09T21:50:54.562Z,13.02
2023-05-09T21:53:23.469Z,13.04
2023-05-09T21:55:51.713Z,13.07
2023-05-09T21:58:19.687Z,13.06
2023-05-09T22:00:47.660Z,13.03
2023-05-09T22:03:15.722Z,13.01
2023-05-09T22:05:43.813Z,13.01
2023-05-09T22:08:13.221Z,12.96
2023-05-09T22:10:41.271Z,12.95
2023-05-09T22:13:10.270Z,12.86
2023-05-09T22:15:38.283Z,12.86
2023-05-09T22:18:06.404Z,12.82
2023-05-09T22:20:34.388Z,12.78
2023-05-09T22:23:02.555Z,12.78
2023-05-09T22:25:31.906Z,12.77
2023-05-09T22:27:59.872Z,12.74
2023-05-09T22:30:28.038Z,12.61
2023-05-09T22:32:56.044Z,12.59
2023-05-09T22:35:24.294Z,12.53
2023-05-09T22:37:52.417Z,12.50
2023-05-09T22:40:20.410Z,12.50
2023-05-09T22:42:49.780Z,12.32
2023-05-09T22:45:17.770Z,12.16
2023-05-09T22:47:45.781Z,12.07
2023-05-09T22:50:14.194Z,12.04
2023-05-09T22:52:42.282Z,11.96
2023-05-09T22:55:10.573Z,11.90
2023-05-09T22:57:38.585Z,11.79
2023-05-09T23:00:09.720Z,11.73
2023-05-09T23:02:37.752Z,11.62
2023-05-09T23:05:06.495Z,11.55
2023-05-09T23:07:34.262Z,11.46
2023-05-09T23:10:02.337Z,11.32
2023-05-09T23:12:30.328Z,11.29
2023-05-09T23:14:58.346Z,11.21
2023-05-09T23:17:27.732Z,11.06
2023-05-09T23:19:55.736Z,10.99
2023-05-09T23:22:23.881Z,10.90
2023-05-09T23:24:51.856Z,10.83
2023-05-09T23:27:19.830Z,10.72
2023-05-09T23:29:47.803Z,10.70
2023-05-09T23:32:15.897Z,10.60
2023-05-09T23:34:45.249Z,10.54
2023-05-09T23:37:13.228Z,10.47
2023-05-09T23:39:41.183Z,10.41
2023-05-09T23:42:09.493Z,10.22
2023-05-09T23:44:37.474Z,10.19
2023-05-09T23:47:05.685Z,10.06
2023-05-09T23:49:33.681Z,10.12
2023-05-09T23:52:03.063Z,10.02
2023-05-09T23:54:31.268Z,9.98
2023-05-09T23:56:59.246Z,10.01
2023-05-09T23:59:27.249Z,9.95
